Terminal Aerodrome Forecast
Issued by NWS Bismarck, ND

Home | Current Version | Previous Version | Graphics & Text | Print | Product List | Glossary On
Versions: 1 2 3 4 5 6 7 8 9 10 11 12 13 14 15 16 17 18 19 20 21 22 23 24
000
FTUS43 KBIS 220303 AAB
TAFISN
TAF AMD
KISN 220303Z 2203/2224 VRB03KT 5SM BR BKN035
     FM220500 VRB03KT 4SM -RA BR OVC015
     FM220700 35005KT 2SM -RASN OVC008
     FM221200 36010KT P6SM VCSH OVC005
     FM222000 36008KT P6SM OVC015=

USA.gov is the U.S. government's official web portal to all federal, state and local government web resources and services.